Time;durP1;ratioP1;P1;durP2;ratioP2;P2;SDS_P1;SDS_P2;PMS_P1;PMS_P2;Temp;Humidity;BMP_temperature;BMP_pressure;BME280_temperature;BME280_humidity;BME280_pressure;Samples;Min_cycle;Max_cycle;Signal;HPM_P1;HPM_P2
2022/03/20 00:00:59;;;;;;;213.23;142.07;;;;;;;27.27;21.70;104396.53;4972289;28;20029;-80
2022/03/20 00:03:25;;;;;;;67.35;42.45;;;;;;;26.68;20.83;104396.94;4967218;28;20031;-81
2022/03/20 00:05:50;;;;;;;55.58;38.15;;;;;;;25.48;21.07;104380.22;4969843;28;20041;-80
2022/03/20 00:08:16;;;;;;;37.17;23.65;;;;;;;24.14;21.69;104386.34;4967214;28;20089;-80
2022/03/20 00:10:47;;;;;;;29.65;21.25;;;;;;;22.75;22.75;104389.63;4963812;28;20035;-80
2022/03/20 00:13:18;;;;;;;26.70;18.45;;;;;;;21.79;23.52;104385.56;4967686;28;20098;-80
2022/03/20 00:15:45;;;;;;;21.92;16.23;;;;;;;20.81;24.55;104383.19;4962895;28;20358;-80
2022/03/20 00:18:13;;;;;;;21.30;15.07;;;;;;;19.92;25.21;104390.00;4972342;28;20034;-80
2022/03/20 00:20:41;;;;;;;21.00;14.32;;;;;;;19.31;25.74;104385.22;4962139;28;20030;-80
2022/03/20 00:23:12;;;;;;;24.65;15.85;;;;;;;18.47;26.48;104390.78;4966097;28;20065;-80
2022/03/20 00:25:39;;;;;;;26.13;16.77;;;;;;;17.66;27.47;104386.44;4970506;28;20023;-80
2022/03/20 00:28:06;;;;;;;21.67;15.18;;;;;;;17.16;28.12;104385.91;4967339;28;20101;-80
2022/03/20 00:30:32;;;;;;;20.65;15.10;;;;;;;16.73;28.33;104379.09;4964007;28;20026;-80
2022/03/20 00:33:00;;;;;;;23.13;15.30;;;;;;;16.23;29.23;104384.59;4966825;28;20026;-80
2022/03/20 00:35:26;;;;;;;19.40;14.57;;;;;;;15.84;29.38;104387.84;4965188;28;20055;-79
2022/03/20 00:37:52;;;;;;;22.85;15.52;;;;;;;15.60;29.90;104374.72;4960938;28;20043;-80
2022/03/20 00:40:18;;;;;;;28.20;15.48;;;;;;;15.34;30.15;104373.41;4958023;28;20442;-80
2022/03/20 00:42:43;;;;;;;22.02;14.88;;;;;;;14.94;30.59;104372.13;4963935;28;20126;-81
2022/03/20 00:45:09;;;;;;;23.02;15.48;;;;;;;14.53;31.01;104369.06;4964503;28;20062;-80
2022/03/20 00:47:35;;;;;;;22.63;14.65;;;;;;;14.26;31.46;104375.09;4964215;28;20054;-80
2022/03/20 00:50:00;;;;;;;22.55;14.55;;;;;;;14.04;31.62;104374.16;4960726;28;20470;-79
2022/03/20 00:52:26;;;;;;;25.17;15.15;;;;;;;13.89;32.09;104374.09;4958735;28;20183;-79
2022/03/20 00:54:52;;;;;;;24.63;15.48;;;;;;;13.73;32.05;104368.84;4966820;28;20034;-80
2022/03/20 00:57:17;;;;;;;20.85;14.55;;;;;;;13.44;32.82;104367.69;4958372;28;20027;-79
2022/03/20 00:59:43;;;;;;;24.95;14.98;;;;;;;13.23;33.00;104367.50;4960443;28;20628;-80
2022/03/20 01:02:08;;;;;;;24.40;14.68;;;;;;;13.04;33.16;104359.84;4965715;28;20110;-80
2022/03/20 01:04:35;;;;;;;21.33;14.90;;;;;;;12.84;33.51;104362.97;4960511;28;20452;-79
2022/03/20 01:07:02;;;;;;;23.50;13.75;;;;;;;12.65;33.75;104355.34;4958309;28;20030;-79
2022/03/20 01:09:30;;;;;;;20.73;14.68;;;;;;;12.53;34.13;104354.03;4957092;28;20027;-80
2022/03/20 01:11:57;;;;;;;24.60;14.45;;;;;;;12.39;34.29;104359.13;4962507;28;20027;-79
2022/03/20 01:14:24;;;;;;;22.42;13.88;;;;;;;12.25;34.47;104356.31;4962430;28;20061;-80
2022/03/20 01:16:51;;;;;;;24.95;14.85;;;;;;;12.08;34.42;104360.88;4966403;28;20098;-79
2022/03/20 01:19:16;;;;;;;22.38;15.13;;;;;;;11.73;35.37;104359.34;4964903;28;20041;-79
2022/03/20 01:21:42;;;;;;;27.65;15.35;;;;;;;11.38;35.88;104353.28;4958830;28;20485;-79
2022/03/20 01:24:09;;;;;;;25.98;14.93;;;;;;;11.22;36.42;104352.41;4960988;28;20027;-79
2022/03/20 01:26:37;;;;;;;24.17;13.70;;;;;;;11.10;36.47;104352.69;4966807;28;20018;-79
2022/03/20 01:29:05;;;;;;;23.73;14.60;;;;;;;10.98;36.55;104351.34;4964414;28;20412;-80
2022/03/20 01:31:31;;;;;;;23.88;14.73;;;;;;;10.85;nan;104353.63;4966977;28;20046;-80
2022/03/20 01:33:58;;;;;;;22.20;14.88;;;;;;;10.68;nan;104347.34;4961405;28;20099;-80
2022/03/20 01:36:24;;;;;;;24.02;14.73;;;;;;;10.49;nan;104340.41;4967630;28;20133;-79
2022/03/20 01:38:50;;;;;;;27.02;15.18;;;;;;;10.42;nan;104339.38;4963604;28;20489;-79
2022/03/20 01:41:16;;;;;;;24.80;13.73;;;;;;;10.34;nan;104333.94;4969815;28;20089;-80
2022/03/20 01:43:57;;;;;;;22.85;13.52;;;;;;;10.17;nan;104341.00;4962820;28;20039;-79
2022/03/20 01:46:23;;;;;;;25.40;14.52;;;;;;;10.12;nan;104343.34;4960569;28;20778;-80
2022/03/20 01:48:51;;;;;;;24.45;14.43;;;;;;;10.03;nan;104338.06;4968197;28;20050;-80
2022/03/20 01:51:18;;;;;;;28.67;14.60;;;;;;;9.87;nan;104334.25;4966680;28;20108;-79
2022/03/20 01:53:44;;;;;;;23.52;14.57;;;;;;;9.82;nan;104331.22;4962865;28;20058;-79
2022/03/20 01:56:09;;;;;;;27.08;15.48;;;;;;;9.71;nan;104334.16;4963304;28;20461;-79
2022/03/20 01:58:36;;;;;;;24.73;13.90;;;;;;;9.58;nan;104337.22;4964978;28;20023;-79
2022/03/20 02:01:02;;;;;;;24.13;13.50;;;;;;;9.49;nan;104337.28;4962829;28;20035;-79
2022/03/20 02:03:31;;;;;;;23.83;14.18;;;;;;;9.40;nan;104325.69;4965606;28;20568;-79
2022/03/20 02:05:58;;;;;;;21.02;13.50;;;;;;;9.25;nan;104327.19;4966634;28;20081;-79
2022/03/20 02:08:27;;;;;;;23.77;14.30;;;;;;;9.05;nan;104321.13;4965696;28;20030;-79
2022/03/20 02:10:53;;;;;;;25.45;13.52;;;;;;;8.89;nan;104326.31;4957057;28;20485;-79
2022/03/20 02:13:23;;;;;;;23.90;14.90;;;;;;;8.76;nan;104308.78;4964606;28;20089;-79
2022/03/20 02:15:51;;;;;;;25.85;14.48;;;;;;;8.73;nan;104321.59;4958658;28;20041;-79
2022/03/20 02:18:20;;;;;;;23.15;14.68;;;;;;;8.73;nan;104310.91;4967572;28;20023;-79
2022/03/20 02:20:49;;;;;;;25.58;14.93;;;;;;;8.63;nan;104315.47;4963983;28;20560;-79
2022/03/20 02:23:15;;;;;;;27.58;14.90;;;;;;;8.55;nan;104307.34;4968141;28;20031;-79
2022/03/20 02:25:49;;;;;;;26.27;13.65;;;;;;;8.46;nan;104309.09;4962673;28;21810;-79
2022/03/20 02:28:15;;;;;;;24.88;14.32;;;;;;;8.38;nan;104301.78;4958195;28;20030;-79
2022/03/20 02:30:41;;;;;;;27.67;14.32;;;;;;;8.28;nan;104302.78;4958091;28;20035;-79
2022/03/20 02:33:06;;;;;;;22.33;13.52;;;;;;;8.21;nan;104299.84;4966139;28;20051;-81
2022/03/20 02:35:33;;;;;;;26.63;14.25;;;;;;;8.19;nan;104300.00;4963123;28;20030;-79
2022/03/20 02:37:59;;;;;;;29.00;14.70;;;;;;;8.21;nan;104299.00;4960088;28;20047;-79
2022/03/20 02:40:25;;;;;;;26.15;14.40;;;;;;;8.19;nan;104293.81;4956592;28;20065;-80
2022/03/20 02:42:53;;;;;;;26.13;16.05;;;;;;;8.07;nan;104293.13;4959116;28;20023;-80
2022/03/20 02:45:27;;;;;;;27.38;15.57;;;;;;;7.89;nan;104290.38;4958839;28;20125;-79
2022/03/20 02:47:53;;;;;;;30.55;14.90;;;;;;;7.76;nan;104295.19;4968638;28;20073;-79
2022/03/20 02:50:24;;;;;;;27.67;14.18;;;;;;;7.59;nan;104293.25;4967649;28;20492;-80
2022/03/20 02:52:52;;;;;;;33.70;15.65;;;;;;;7.46;nan;104288.19;4964848;28;20030;-80
2022/03/20 02:55:30;;;;;;;25.58;14.30;;;;;;;7.21;nan;104289.59;4967882;28;20388;-79
2022/03/20 02:57:58;;;;;;;25.58;13.32;;;;;;;7.17;nan;104288.16;4962104;28;20035;-79
2022/03/20 03:00:26;;;;;;;29.55;14.70;;;;;;;7.08;nan;104289.00;4965215;28;20038;-79
2022/03/20 03:02:54;;;;;;;25.83;14.32;;;;;;;7.00;nan;104290.66;4965885;28;20038;-79
2022/03/20 03:05:22;;;;;;;25.15;14.35;;;;;;;6.91;nan;104287.84;4973006;28;20504;-79
2022/03/20 03:13:18;;;;;;;26.92;13.80;;;;;;;6.52;nan;104292.25;4960658;28;20031;-79
2022/03/20 03:15:44;;;;;;;33.42;15.35;;;;;;;6.47;nan;104285.63;4958779;28;20023;-78
2022/03/20 03:18:10;;;;;;;26.08;14.63;;;;;;;6.35;nan;104288.38;4961584;28;20031;-79
2022/03/20 03:20:36;;;;;;;29.85;15.50;;;;;;;6.34;nan;104289.38;4962535;28;20038;-79
2022/03/20 03:23:03;;;;;;;27.25;14.85;;;;;;;6.31;nan;104286.97;4963286;28;20034;-79
2022/03/20 03:25:32;;;;;;;28.17;15.52;;;;;;;6.27;nan;104288.19;4967108;28;20047;-79
2022/03/20 03:27:58;;;;;;;28.88;15.30;;;;;;;6.21;nan;104286.06;4968983;28;20027;-79
2022/03/20 03:30:23;;;;;;;29.73;16.17;;;;;;;6.19;nan;104295.16;4969187;28;20086;-79
2022/03/20 03:32:49;;;;;;;28.45;15.43;;;;;;;6.20;nan;104291.53;4967858;28;20585;-80
2022/03/20 03:38:00;;;;;;;27.77;15.07;;;;;;;6.11;nan;104293.19;4958508;28;20037;-79
2022/03/20 03:40:26;;;;;;;27.33;14.30;;;;;;;6.00;nan;104295.91;4963039;28;20432;-79
2022/03/20 03:42:52;;;;;;;28.77;14.60;;;;;;;5.96;nan;104299.81;4972057;28;20094;-79
2022/03/20 03:45:18;;;;;;;29.38;15.60;;;;;;;5.94;nan;104293.78;4967334;28;20744;-79
2022/03/20 03:47:44;;;;;;;25.35;14.23;;;;;;;5.91;nan;104300.19;4965622;28;20130;-80
2022/03/20 03:50:10;;;;;;;28.33;14.45;;;;;;;5.94;nan;104291.13;4965529;28;20034;-79
2022/03/20 03:52:37;;;;;;;31.13;14.65;;;;;;;5.96;nan;104297.16;4966320;28;20396;-79
2022/03/20 03:55:04;;;;;;;24.48;14.27;;;;;;;5.97;nan;104285.53;4966555;28;20107;-79
2022/03/20 03:57:30;;;;;;;25.17;15.70;;;;;;;5.96;nan;104284.69;4965994;28;20023;-80
2022/03/20 03:59:56;;;;;;;26.42;15.27;;;;;;;5.87;nan;104284.56;4970432;28;20509;-79
2022/03/20 04:02:22;;;;;;;28.58;15.80;;;;;;;5.82;nan;104286.78;4965103;28;20035;-79
2022/03/20 04:04:48;;;;;;;28.85;15.23;;;;;;;5.78;nan;104280.06;4961509;28;20492;-79
2022/03/20 04:07:18;;;;;;;30.25;15.93;;;;;;;5.66;nan;104281.91;4965019;28;20035;-79
2022/03/20 04:09:47;;;;;;;27.88;14.85;;;;;;;5.60;nan;104285.09;4969019;28;20077;-79
2022/03/20 04:12:15;;;;;;;31.77;15.95;;;;;;;5.57;nan;104288.88;4965185;28;20028;-79
2022/03/20 04:14:41;;;;;;;28.40;16.42;;;;;;;5.38;nan;104286.03;4959111;28;20935;-79
2022/03/20 04:17:07;;;;;;;28.25;15.48;;;;;;;5.18;nan;104282.34;4963218;28;20026;-79
2022/03/20 04:19:33;;;;;;;29.63;16.70;;;;;;;5.11;nan;104284.69;4965504;28;20026;-79
2022/03/20 04:22:02;;;;;;;28.38;15.80;;;;;;;5.10;nan;104284.81;4969205;28;20101;-79
2022/03/20 04:24:31;;;;;;;35.63;15.82;;;;;;;5.11;nan;104284.69;4965734;28;20101;-79
2022/03/20 04:26:58;;;;;;;27.20;14.98;;;;;;;5.10;nan;104282.16;4960058;28;20623;-80
2022/03/20 04:29:27;;;;;;;25.58;14.27;;;;;;;5.08;nan;104286.75;4963882;28;20035;-79
2022/03/20 04:31:54;;;;;;;31.30;16.63;;;;;;;5.02;nan;104282.75;4969458;28;20326;-79
2022/03/20 04:34:21;;;;;;;30.58;15.18;;;;;;;4.88;nan;104275.09;4965331;28;20516;-80
2022/03/20 04:36:47;;;;;;;33.65;16.60;;;;;;;4.74;nan;104278.84;4962713;28;20030;-79
2022/03/20 04:39:12;;;;;;;30.50;16.77;;;;;;;4.67;nan;104284.75;4959617;28;20058;-80
2022/03/20 04:41:38;;;;;;;30.30;16.52;;;;;;;4.61;nan;104282.59;4965525;28;20181;-79
2022/03/20 04:44:03;;;;;;;26.60;15.13;;;;;;;4.48;nan;104283.56;4968523;28;20056;-80
2022/03/20 04:46:29;;;;;;;32.35;16.40;;;;;;;4.37;nan;104280.09;4971311;28;20028;-81
2022/03/20 04:59:53;;;;;;;30.25;16.13;;;;;;;4.22;nan;104287.44;4961230;28;20377;-79
2022/03/20 05:02:19;;;;;;;32.42;15.45;;;;;;;4.13;nan;104282.84;4967970;28;20058;-79
2022/03/20 05:04:44;;;;;;;33.03;16.17;;;;;;;4.10;nan;104288.38;4960214;28;20059;-80
2022/03/20 05:07:10;;;;;;;26.70;14.70;;;;;;;4.08;nan;104287.66;4960205;28;20082;-79
2022/03/20 05:15:08;;;;;;;32.92;15.50;;;;;;;4.07;nan;104299.25;4965277;28;20081;-79
2022/03/20 05:17:35;;;;;;;33.38;16.05;;;;;;;4.13;nan;104298.75;4966893;28;20036;-79
2022/03/20 05:20:00;;;;;;;32.47;17.02;;;;;;;4.11;nan;104296.22;4967351;28;20073;-79
2022/03/20 05:22:26;;;;;;;26.95;14.38;;;;;;;4.12;nan;104302.38;4968726;28;20054;-79
2022/03/20 05:24:52;;;;;;;32.00;14.52;;;;;;;4.11;nan;104304.19;4965384;28;20658;-79
2022/03/20 05:27:18;;;;;;;28.88;15.07;;;;;;;4.11;nan;104306.84;4967198;28;20026;-79
2022/03/20 05:29:44;;;;;;;32.83;16.25;;;;;;;4.06;nan;104305.50;4963590;28;20022;-79
2022/03/20 05:32:09;;;;;;;33.25;16.73;;;;;;;4.02;nan;104309.38;4968711;28;20038;-81
2022/03/20 05:34:37;;;;;;;31.20;15.73;;;;;;;3.98;nan;104308.78;4969311;28;20029;-79
2022/03/20 05:37:03;;;;;;;27.30;14.07;;;;;;;4.03;nan;104314.56;4960769;28;20042;-79
2022/03/20 05:39:29;;;;;;;29.90;15.18;;;;;;;4.12;nan;104318.31;4962338;28;20051;-80
2022/03/20 05:41:55;;;;;;;31.27;15.35;;;;;;;4.22;nan;104329.91;4963891;28;20520;-81
2022/03/20 05:44:26;;;;;;;31.33;15.20;;;;;;;4.28;nan;104328.59;4969676;28;20034;-80
2022/03/20 05:46:53;;;;;;;36.95;16.05;;;;;;;4.30;nan;104329.31;4963068;28;20106;-79
2022/03/20 05:49:19;;;;;;;30.33;16.48;;;;;;;4.30;nan;104327.50;4962400;28;20091;-80
2022/03/20 05:51:49;;;;;;;33.78;15.70;;;;;;;4.34;nan;104334.28;4962862;28;20030;-80
2022/03/20 05:54:15;;;;;;;26.55;14.77;;;;;;;4.37;nan;104328.72;4966646;28;20102;-79
2022/03/20 05:59:26;;;;;;;32.45;15.13;;;;;;;4.37;nan;104331.38;4959521;28;20050;-80
2022/03/20 06:01:52;;;;;;;32.00;16.33;;;;;;;4.42;nan;104326.56;4962341;28;20448;-80
2022/03/20 06:04:19;;;;;;;30.27;16.75;;;;;;;4.49;nan;104335.75;4966288;28;20046;-79
2022/03/20 06:06:45;;;;;;;29.40;16.45;;;;;;;4.55;nan;104335.25;4970786;28;20027;-79
2022/03/20 06:09:11;;;;;;;31.92;15.57;;;;;;;4.61;nan;104331.25;4962349;28;20110;-79
2022/03/20 06:11:37;;;;;;;29.95;15.40;;;;;;;4.67;nan;104322.81;4957300;28;20031;-80
2022/03/20 06:14:03;;;;;;;30.35;14.82;;;;;;;4.74;nan;104332.00;4957100;28;20030;-80
2022/03/20 06:16:30;;;;;;;30.88;15.95;;;;;;;4.82;nan;104334.03;4965436;28;20033;-79
2022/03/20 06:18:55;;;;;;;35.13;15.75;;;;;;;4.81;nan;104324.38;4964480;28;20015;-80
2022/03/20 06:21:22;;;;;;;28.42;15.55;;;;;;;4.79;nan;104328.97;4959667;28;20015;-79
2022/03/20 06:23:49;;;;;;;35.83;16.35;;;;;;;4.77;nan;104328.25;4963443;28;20047;-80
2022/03/20 06:26:14;;;;;;;32.97;15.85;;;;;;;4.75;nan;104332.84;4962055;28;20024;-79
2022/03/20 06:28:40;;;;;;;29.05;15.88;;;;;;;4.75;nan;104328.38;4965115;28;20026;-79
2022/03/20 06:31:12;;;;;;;28.98;15.18;;;;;;;4.72;nan;104325.97;4959513;28;20039;-79
2022/03/20 06:33:39;;;;;;;30.42;14.93;;;;;;;4.79;nan;104331.63;4960171;28;20056;-80
2022/03/20 06:36:06;;;;;;;31.23;16.23;;;;;;;4.83;nan;104333.06;4963966;28;20034;-79
2022/03/20 06:38:33;;;;;;;28.48;14.60;;;;;;;4.88;nan;104332.72;4971644;28;20023;-79
2022/03/20 06:41:00;;;;;;;32.20;15.15;;;;;;;4.91;nan;104328.00;4969026;28;20217;-80
2022/03/20 06:43:26;;;;;;;30.83;15.43;;;;;;;4.94;nan;104327.72;4963362;28;20023;-79
2022/03/20 06:45:53;;;;;;;31.58;15.10;;;;;;;5.00;nan;104332.53;4969076;28;20261;-80
2022/03/20 06:48:19;;;;;;;29.15;14.07;;;;;;;5.07;nan;104335.56;4966355;28;20035;-79
2022/03/20 06:50:45;;;;;;;29.15;14.45;;;;;;;5.16;nan;104340.97;4965941;28;20035;-79
2022/03/20 06:53:11;;;;;;;24.73;13.32;;;;;;;5.26;nan;104343.75;4972613;28;20085;-79
2022/03/20 06:55:37;;;;;;;26.52;14.23;;;;;;;5.36;nan;104333.19;4970042;28;20026;-79
2022/03/20 06:58:03;;;;;;;26.75;14.27;;;;;;;5.46;nan;104336.78;4964603;28;20031;-79
2022/03/20 07:00:30;;;;;;;29.95;14.15;;;;;;;5.53;nan;104329.97;4964821;28;20022;-79
2022/03/20 07:02:56;;;;;;;26.70;13.75;;;;;;;5.58;nan;104337.59;4969813;28;20050;-80
2022/03/20 07:05:22;;;;;;;30.67;14.60;;;;;;;5.67;nan;104334.16;4964559;28;20045;-79
2022/03/20 07:07:50;;;;;;;26.17;13.52;;;;;;;5.75;nan;104345.88;4966399;28;20023;-80
2022/03/20 07:10:19;;;;;;;23.80;12.98;;;;;;;5.86;nan;104341.44;4972037;28;20030;-79
2022/03/20 07:12:45;;;;;;;25.52;12.80;;;;;;;5.94;nan;104341.69;4971703;28;20464;-79
2022/03/20 07:15:11;;;;;;;23.67;13.15;;;;;;;6.00;nan;104334.03;4971579;28;20070;-79
2022/03/20 07:17:37;;;;;;;28.27;13.10;;;;;;;6.08;nan;104330.69;4968567;28;20073;-79
2022/03/20 07:20:13;;;;;;;24.60;13.48;;;;;;;6.13;nan;104333.81;4967290;28;20035;-80
2022/03/20 07:22:39;;;;;;;26.70;13.57;;;;;;;6.22;nan;104333.03;4967435;28;20031;-82
2022/03/20 07:30:33;;;;;;;24.67;12.77;;;;;;;6.48;nan;104329.94;4962726;28;20452;-82
2022/03/20 07:32:59;;;;;;;22.52;13.10;;;;;;;6.54;nan;104332.06;4963666;28;20031;-80
2022/03/20 07:35:25;;;;;;;26.58;13.57;;;;;;;6.63;nan;104331.25;4973168;28;20030;-81
2022/03/20 07:37:51;;;;;;;24.00;12.13;;;;;;;6.72;nan;104335.78;4972096;28;20519;-81
2022/03/20 07:40:17;;;;;;;22.63;12.90;;;;;;;6.82;nan;104328.69;4974071;28;20053;-81
2022/03/20 07:42:43;;;;;;;22.77;12.93;;;;;;;6.88;nan;104320.13;4971207;28;20018;-81
2022/03/20 07:45:09;;;;;;;27.33;12.70;;;;;;;6.95;nan;104329.25;4971503;28;20109;-81
2022/03/20 07:47:34;;;;;;;24.70;11.60;;;;;;;7.03;nan;104319.75;4972098;28;20029;-81
2022/03/20 07:50:00;;;;;;;29.20;13.35;;;;;;;7.13;nan;104325.91;4969427;28;20011;-84
2022/03/20 07:52:25;;;;;;;25.15;13.35;;;;;;;7.22;nan;104323.28;4971295;28;20370;-81
2022/03/20 07:54:51;;;;;;;24.95;12.10;;;;;;;7.31;nan;104321.59;4975008;28;20030;-81
2022/03/20 07:57:17;;;;;;;25.10;13.30;;;;;;;7.39;nan;104323.56;4965737;28;20057;-81
2022/03/20 07:59:44;;;;;;;27.92;13.77;;;;;;;7.49;nan;104324.41;4966452;28;20099;-80
2022/03/20 08:02:10;;;;;;;23.20;13.32;;;;;;;7.56;nan;104313.03;4972100;28;20030;-82
2022/03/20 08:04:37;;;;;;;20.23;12.07;;;;;;;7.65;nan;104318.50;4963077;28;20023;-82
2022/03/20 08:07:03;;;;;;;26.55;12.30;;;;;;;7.75;nan;104319.34;4966856;28;20027;-80
2022/03/20 08:09:29;;;;;;;20.98;12.10;;;;;;;7.83;nan;104320.31;4965107;28;20107;-80
2022/03/20 08:11:55;;;;;;;24.77;13.07;;;;;;;7.92;nan;104315.97;4967450;28;20027;-81
2022/03/20 08:14:22;;;;;;;22.85;12.70;;;;;;;7.99;nan;104321.56;4963446;28;20019;-81
2022/03/20 08:16:49;;;;;;;25.88;13.05;;;;;;;8.09;nan;104309.03;4967983;28;20053;-80
2022/03/20 08:19:17;;;;;;;23.58;12.13;;;;;;;8.20;nan;104314.19;4965570;28;20027;-79
2022/03/20 08:21:43;;;;;;;20.88;12.25;;;;;;;8.29;nan;104320.50;4971312;28;20035;-78
2022/03/20 08:24:09;;;;;;;20.88;11.95;;;;;;;8.35;nan;104311.94;4972974;28;20023;-80
2022/03/20 08:26:35;;;;;;;26.05;13.18;;;;;;;8.44;nan;104311.91;4969501;28;20023;-79
2022/03/20 08:29:02;;;;;;;20.27;11.95;;;;;;;8.55;nan;104315.34;4960538;28;20039;-79
2022/03/20 08:31:29;;;;;;;21.48;12.38;;;;;;;8.60;nan;104305.91;4969985;28;20027;-80
2022/03/20 08:33:57;;;;;;;27.42;13.57;;;;;;;8.64;nan;104309.97;4965426;28;20170;-81
2022/03/20 08:36:24;;;;;;;23.65;11.63;;;;;;;8.71;nan;104312.91;4960882;28;20050;-81
2022/03/20 08:38:50;;;;;;;20.85;10.93;;;;;;;8.76;nan;104310.59;4967755;28;20033;-84
2022/03/20 08:41:18;;;;;;;15.40;10.55;;;;;;;8.79;nan;104315.66;4964019;28;20114;-82
2022/03/20 08:44:11;;;;;;;19.55;10.35;;;;;;;8.79;nan;104303.13;4974068;28;20027;-81
2022/03/20 08:46:37;;;;;;;21.23;12.43;;;;;;;8.89;nan;104305.75;4970626;28;20046;-82
2022/03/20 08:49:09;;;;;;;19.27;11.38;;;;;;;9.02;nan;104310.75;4968661;28;20404;-80
2022/03/20 08:51:38;;;;;;;23.13;12.20;;;;;;;9.10;nan;104308.16;4971401;28;20027;-77
2022/03/20 08:54:03;;;;;;;21.05;11.55;;;;;;;9.15;nan;104305.00;4972066;28;20400;-79
2022/03/20 08:56:29;;;;;;;25.17;11.98;;;;;;;9.17;nan;104303.88;4970075;28;20070;-80
2022/03/20 08:58:56;;;;;;;23.77;12.25;;;;;;;9.24;nan;104299.59;4963137;28;20027;-79
2022/03/20 09:01:24;;;;;;;23.75;12.23;;;;;;;9.34;nan;104300.38;4966069;28;20041;-83
2022/03/20 09:04:00;;;;;;;18.23;11.05;;;;;;;9.44;nan;104286.06;4968186;28;20029;-81
2022/03/20 09:06:26;;;;;;;19.75;10.85;;;;;;;9.57;nan;104297.22;4971183;28;20413;-78
2022/03/20 09:08:53;;;;;;;23.45;10.88;;;;;;;9.63;nan;104283.22;4972520;28;20073;-79
2022/03/20 09:11:23;;;;;;;20.05;11.02;;;;;;;9.67;nan;104287.25;4965160;28;20023;-81
2022/03/20 09:14:00;;;;;;;22.40;10.82;;;;;;;9.74;nan;104284.81;4964546;28;20023;-80
2022/03/20 09:19:37;;;;;;;23.70;10.35;;;;;;;9.86;nan;104283.53;4930798;29;20674;-77
2022/03/20 09:22:11;;;;;;;22.10;10.45;;;;;;;9.89;nan;104276.03;4925660;29;20123;-84
2022/03/20 09:24:47;;;;;;;20.03;9.67;;;;;;;9.87;nan;104267.28;4948388;28;20050;-81
2022/03/20 09:27:23;;;;;;;;;;;;;;;;;;;;;
2022/03/20 09:29:50;;;;;;;18.48;9.30;;;;;;;10.08;nan;104266.13;4965940;28;20030;-80
2022/03/20 09:32:17;;;;;;;26.92;10.27;;;;;;;10.15;nan;104257.25;4961074;28;20031;-84
2022/03/20 09:34:42;;;;;;;21.83;9.80;;;;;;;10.20;nan;104257.63;4955067;28;20038;-82
2022/03/20 09:37:08;;;;;;;19.88;9.68;;;;;;;10.26;nan;104258.88;4958002;28;20031;-80
2022/03/20 09:39:33;;;;;;;22.75;10.73;;;;;;;10.33;nan;104254.53;4958442;28;20086;-82
2022/03/20 09:42:01;;;;;;;18.25;9.95;;;;;;;10.39;nan;104253.88;4959421;28;20033;-78
2022/03/20 09:44:27;;;;;;;18.10;10.18;;;;;;;10.46;nan;104252.25;4964755;28;20126;-79
2022/03/20 09:50:30;;;;;;;20.27;9.90;;;;;;;10.63;nan;104244.25;4955865;28;20042;-81
2022/03/20 09:53:26;;;;;;;21.20;10.60;;;;;;;10.66;nan;104254.66;4951579;29;20038;-83
2022/03/20 10:14:46;;;;;;;26.45;10.57;;;;;;;11.16;nan;104236.66;4948116;28;20047;-80
2022/03/20 10:17:16;;;;;;;19.60;10.07;;;;;;;11.25;nan;104239.31;4956081;28;20608;-79
2022/03/20 10:19:56;;;;;;;19.38;10.10;;;;;;;11.21;nan;104238.81;4946505;28;20153;-82
2022/03/20 10:22:52;;;;;;;22.05;11.32;;;;;;;11.22;nan;104231.59;4942472;28;20039;-81
2022/03/20 10:25:20;;;;;;;22.90;10.90;;;;;;;11.29;nan;104224.53;4928445;29;20149;-82
2022/03/20 10:27:57;;;;;;;19.50;10.23;;;;;;;11.34;nan;104225.75;4935011;29;20493;-79
2022/03/20 10:30:24;;;;;;;16.38;10.32;;;;;;;11.44;nan;104233.59;4929560;28;20866;-81
2022/03/20 10:32:50;;;;;;;19.58;10.60;;;;;;;11.52;nan;104225.56;4933211;29;20030;-79
2022/03/20 10:35:17;;;;;;;19.00;10.45;;;;;;;11.57;nan;104225.03;4939039;29;20035;-84
2022/03/20 10:37:44;;;;;;;17.98;11.60;;;;;;;11.64;nan;104217.97;4941164;29;20046;-80
2022/03/20 10:40:16;;;;;;;17.48;10.18;;;;;;;11.73;nan;104212.41;4937185;28;20032;-80
2022/03/20 10:42:44;;;;;;;19.75;8.95;;;;;;;11.82;nan;104210.56;4933811;29;20036;-85
2022/03/20 10:45:11;;;;;;;20.63;9.52;;;;;;;11.87;nan;104210.91;4931623;29;20031;-80
2022/03/20 10:47:37;;;;;;;18.95;9.40;;;;;;;11.93;nan;104204.00;4933415;29;20166;-82
2022/03/20 10:50:10;;;;;;;15.27;9.45;;;;;;;11.95;nan;104200.13;4937179;29;20122;-82
2022/03/20 10:52:37;;;;;;;15.95;9.18;;;;;;;12.02;nan;104195.72;4932701;29;20031;-80
2022/03/20 10:55:30;;;;;;;17.67;10.02;;;;;;;12.05;nan;104199.94;4933202;29;20039;-81
2022/03/20 10:58:16;;;;;;;18.48;9.50;;;;;;;12.17;nan;104198.53;4931978;29;20031;-80
2022/03/20 11:01:12;;;;;;;14.10;9.05;;;;;;;12.19;nan;104201.03;4936384;29;20031;-85
2022/03/20 11:03:40;;;;;;;23.85;10.13;;;;;;;12.29;nan;104197.13;4929249;28;20042;-80
2022/03/20 11:06:07;;;;;;;62.63;36.72;;;;;;;12.25;nan;104195.81;4935808;29;20039;-81
2022/03/20 11:08:32;;;;;;;43.88;25.90;;;;;;;12.21;nan;104188.25;4935881;29;20702;-83
2022/03/20 11:11:03;;;;;;;27.45;14.90;;;;;;;12.19;nan;104180.38;4933642;29;20023;-80
2022/03/20 11:13:33;;;;;;;17.25;11.43;;;;;;;12.21;nan;104181.06;4933549;29;20028;-84
2022/03/20 11:16:04;;;;;;;17.17;11.30;;;;;;;12.29;nan;104162.19;4939998;29;20031;-81
2022/03/20 11:18:33;;;;;;;22.95;11.35;;;;;;;12.35;nan;104164.16;4935734;28;20557;-80
2022/03/20 11:21:04;;;;;;;14.52;9.98;;;;;;;12.39;nan;104160.13;4937091;29;20114;-81
2022/03/20 11:23:35;;;;;;;17.45;10.05;;;;;;;12.47;nan;104156.53;4934093;29;20030;-81
2022/03/20 11:26:03;;;;;;;16.45;9.38;;;;;;;12.55;nan;104155.63;4940280;29;20053;-82
2022/03/20 11:28:43;;;;;;;18.95;9.45;;;;;;;12.61;nan;104157.63;4936779;29;20050;-80
2022/03/20 11:31:14;;;;;;;15.88;9.38;;;;;;;12.68;nan;104153.19;4940790;29;20055;-81
2022/03/20 11:33:43;;;;;;;19.13;8.73;;;;;;;12.80;nan;104153.63;4939950;29;20211;-83
2022/03/20 11:36:11;;;;;;;17.48;8.48;;;;;;;12.88;nan;104146.31;4940891;29;20035;-81
2022/03/20 11:38:38;;;;;;;14.57;8.57;;;;;;;13.00;nan;104157.50;4938457;29;20876;-79
2022/03/20 11:41:07;;;;;;;22.35;13.48;;;;;;;13.12;nan;104133.66;4937927;29;20099;-80
2022/03/20 11:43:35;;;;;;;26.95;10.70;;;;;;;13.27;nan;104129.16;4938318;29;20036;-80
2022/03/20 11:46:28;;;;;;;32.17;10.15;;;;;;;13.44;nan;104137.91;4936247;29;20035;-80
2022/03/20 11:49:20;;;;;;;18.67;9.32;;;;;;;13.48;nan;104134.69;4932595;29;21079;-82
2022/03/20 11:51:56;;;;;;;12.50;8.00;;;;;;;13.51;nan;104131.59;4934639;29;20042;-82
2022/03/20 11:55:01;;;;;;;14.55;9.40;;;;;;;13.59;nan;104123.41;4932934;29;20034;-82
2022/03/20 11:57:29;;;;;;;14.35;9.00;;;;;;;13.84;nan;104115.91;4937832;29;20040;-80
2022/03/20 12:00:10;;;;;;;16.17;8.68;;;;;;;14.03;nan;104110.94;4932548;29;20031;-82
2022/03/20 12:02:35;;;;;;;14.32;8.85;;;;;;;14.25;nan;104109.09;4939175;29;20074;-80
2022/03/20 12:05:15;;;;;;;14.57;8.35;;;;;;;14.25;nan;104111.81;4937467;29;20521;-80
2022/03/20 12:07:47;;;;;;;13.85;8.60;;;;;;;14.32;nan;104104.59;4931151;29;20091;-80
2022/03/20 12:10:30;;;;;;;26.92;9.48;;;;;;;14.46;nan;104095.66;4932310;29;20110;-82
2022/03/20 12:13:04;;;;;;;16.15;8.80;;;;;;;14.55;nan;104102.59;4934530;29;20809;-81
2022/03/20 12:15:30;;;;;;;14.37;8.73;;;;;;;14.61;nan;104090.19;4931791;29;20079;-82
2022/03/20 12:17:58;;;;;;;9.98;7.43;;;;;;;14.73;nan;104097.59;4937967;29;20114;-83
2022/03/20 12:20:49;;;;;;;15.25;9.48;;;;;;;14.77;nan;104093.47;4942532;29;20418;-81
2022/03/20 12:23:35;;;;;;;13.90;8.63;;;;;;;14.88;nan;104083.16;4932702;29;20062;-79
2022/03/20 12:26:23;;;;;;;17.17;8.57;;;;;;;14.91;nan;104083.59;4932995;29;20544;-78
2022/03/20 12:28:48;;;;;;;13.55;8.13;;;;;;;15.03;nan;104070.38;4934616;29;20043;-81
2022/03/20 12:31:26;;;;;;;13.60;8.02;;;;;;;15.05;nan;104076.41;4929289;29;20473;-81
2022/03/20 12:34:20;;;;;;;10.98;7.20;;;;;;;15.19;nan;104074.66;4939146;29;20035;-81